Portada
METAR-TAF:

METAR-TAF

Aeropuertos :

Aeropuerto de Gibraltar

Gibraltar, Gibraltar

latitud: 36-09N, longitud: 005-21W, altitud: 5 m

Observación

El informe se hizo hace 44 minutos, a las 15:50 UTC
Viento 10 kt del sur-suroeste
Temperatura 23°C
Humedad 65%
Presión 1014 hPa
Visibilidad 10 km o más
Escasas nubes a una altura de 4000 ft

METAR: LXGB 171550Z 20010KT 9999 FEW040 23/16 Q1014 NOSIG

Hora: 18:34 (16:34 UTC)

Pronóstico

El informe se hizo hace 19 minutos, a las 16:15 UTC
Pronóstico válido del 17 a las 16 UTC al 17 a las 22 UTC
Viento 8 kt del sur-suroeste
Visibilidad 10 km o más
Escasas nubes a una altura de 3000 ft
Probabilidad 30% :
Temporalmente
del 17 a las 20 UTC al 17 a las 22 UTC
Nubes dispersas a una altura de 2400 ft

TAF: LXGB 171615Z 1716/1722 20008KT 9999 FEW030 PROB30 TEMPO 1720/1722 SCT024

Observaciones y pronósticos meteorológicos de más de 4000 aeropuertos (mensajes METAR y TAF).

Los puntos amarillos y rojos representan las estaciones disponibles.

Ponga el ratón en el punto deseado para ver el nombre de la estación.

Haga clic para ver las observaciones y los pronósticos meteorológicos.

Para cambiar el mapa : haga clic en los botones verdes con una cruz de color negro para hacer un zoom, en el botón verde con un guión para alejar o en las flechas verdes para mapas adyacentes.


METAR-TAF: